createdAt,value
2017-12-12T00:00:12.520Z,925.18
2017-12-12T00:00:25.134Z,925.2
2017-12-12T00:00:38.177Z,925.22
2017-12-12T00:00:50.809Z,925.22
2017-12-12T00:01:02.959Z,925.19
2017-12-12T00:01:15.549Z,925.24
2017-12-12T00:01:28.610Z,925.22
2017-12-12T00:01:41.683Z,925.37
2017-12-12T00:01:54.315Z,925.29
2017-12-12T00:02:07.390Z,925.36
2017-12-12T00:02:20.433Z,925.22
2017-12-12T00:02:33.015Z,925.25
2017-12-12T00:02:45.131Z,925.35
2017-12-12T00:02:58.278Z,925.12
2017-12-12T00:03:10.844Z,925.36
2017-12-12T00:03:25.560Z,925.27
2017-12-12T00:03:38.604Z,925.31
2017-12-12T00:03:51.698Z,925.26
2017-12-12T00:04:04.806Z,925.34
2017-12-12T00:04:17.906Z,925.32
2017-12-12T00:04:30.957Z,925.42
2017-12-12T00:04:44.067Z,925.32
2017-12-12T00:04:57.226Z,925.26
2017-12-12T00:05:10.230Z,925.36
2017-12-12T00:05:23.296Z,925.3
2017-12-12T00:05:35.931Z,925.25
2017-12-12T00:05:48.542Z,925.28
2017-12-12T00:06:01.604Z,925.34
2017-12-12T00:06:14.734Z,925.38
2017-12-12T00:06:27.724Z,925.34
2017-12-12T00:06:40.808Z,925.34
2017-12-12T00:06:53.386Z,925.36
2017-12-12T00:07:06.446Z,925.38
2017-12-12T00:07:18.589Z,925.32
2017-12-12T00:07:31.397Z,925.38
2017-12-12T00:07:44.448Z,925.32
2017-12-12T00:07:57.457Z,925.27
2017-12-12T00:08:09.624Z,925.29
2017-12-12T00:08:21.743Z,925.37
2017-12-12T00:08:35.000Z,925.52
2017-12-12T00:08:48.128Z,925.32
2017-12-12T00:09:01.294Z,925.33
2017-12-12T00:09:13.939Z,925.32
2017-12-12T00:09:26.572Z,925.34
2017-12-12T00:09:39.213Z,925.36
2017-12-12T00:09:52.330Z,925.34
2017-12-12T00:10:05.462Z,925.35
2017-12-12T00:10:18.061Z,925.32
2017-12-12T00:10:31.180Z,925.37
2017-12-12T00:10:44.235Z,925.32
2017-12-12T00:10:57.304Z,925.33
2017-12-12T00:11:09.932Z,925.34
2017-12-12T00:11:23.027Z,925.32
2017-12-12T00:11:36.159Z,925.31
2017-12-12T00:11:49.248Z,925.34
2017-12-12T00:12:01.865Z,925.4
2017-12-12T00:12:14.744Z,925.36
2017-12-12T00:12:27.365Z,925.38
2017-12-12T00:12:40.491Z,925.42
2017-12-12T00:12:53.608Z,925.37
2017-12-12T00:13:06.749Z,925.44
2017-12-12T00:13:19.394Z,925.47
2017-12-12T00:13:32.424Z,925.39
2017-12-12T00:13:45.503Z,925.38
2017-12-12T00:13:58.593Z,925.42
2017-12-12T00:14:10.332Z,925.42
2017-12-12T00:14:23.428Z,925.51
2017-12-12T00:14:36.468Z,925.45
2017-12-12T00:14:49.571Z,925.43
2017-12-12T00:15:02.885Z,925.38
2017-12-12T00:15:15.942Z,925.41
2017-12-12T00:15:28.516Z,925.41
2017-12-12T00:15:41.603Z,925.46
2017-12-12T00:15:54.147Z,925.43
2017-12-12T00:16:07.226Z,925.43
2017-12-12T00:16:20.201Z,925.48
2017-12-12T00:16:32.339Z,925.41
2017-12-12T00:16:45.386Z,925.47
2017-12-12T00:16:58.510Z,925.41
2017-12-12T00:17:11.531Z,925.45
2017-12-12T00:17:24.582Z,925.48
2017-12-12T00:17:36.740Z,925.53
2017-12-12T00:17:49.286Z,925.51
2017-12-12T00:18:01.927Z,925.48
2017-12-12T00:18:14.566Z,925.49
2017-12-12T00:18:28.904Z,925.53
2017-12-12T00:18:41.996Z,925.5
2017-12-12T00:18:55.063Z,925.49
2017-12-12T00:19:08.126Z,925.53
2017-12-12T00:19:21.198Z,925.49
2017-12-12T00:19:34.204Z,925.5
2017-12-12T00:19:47.234Z,925.47
2017-12-12T00:19:59.827Z,925.52
2017-12-12T00:20:12.460Z,925.51
2017-12-12T00:20:25.522Z,925.53
2017-12-12T00:20:38.560Z,925.57
2017-12-12T00:20:51.185Z,925.47
2017-12-12T00:21:04.260Z,925.7
2017-12-12T00:21:17.408Z,925.39
2017-12-12T00:21:30.466Z,925.53
2017-12-12T00:21:43.567Z,925.51
2017-12-12T00:21:56.166Z,925.56
2017-12-12T00:22:08.739Z,925.45
2017-12-12T00:22:21.864Z,925.52
2017-12-12T00:22:34.953Z,925.54
2017-12-12T00:22:48.114Z,925.5
2017-12-12T00:23:01.263Z,925.51
2017-12-12T00:23:14.295Z,925.51
2017-12-12T00:23:26.901Z,925.51
2017-12-12T00:23:39.987Z,925.48
2017-12-12T00:23:52.533Z,925.45
2017-12-12T00:24:05.661Z,925.54
2017-12-12T00:24:18.268Z,925.56
2017-12-12T00:24:31.284Z,925.54
2017-12-12T00:24:44.400Z,925.59
2017-12-12T00:24:57.533Z,925.59
2017-12-12T00:25:10.687Z,925.54
2017-12-12T00:25:23.757Z,925.54
2017-12-12T00:25:36.811Z,925.58
2017-12-12T00:25:49.932Z,925.53
2017-12-12T00:26:02.997Z,925.52
2017-12-12T00:26:16.059Z,925.55
2017-12-12T00:26:29.131Z,925.53
2017-12-12T00:26:42.190Z,925.53
2017-12-12T00:26:55.218Z,925.71
2017-12-12T00:27:08.321Z,925.55
2017-12-12T00:27:20.413Z,925.59
2017-12-12T00:27:33.534Z,925.57
2017-12-12T00:27:46.678Z,925.6
2017-12-12T00:27:59.749Z,925.61
2017-12-12T00:28:12.887Z,925.78
2017-12-12T00:28:26.018Z,925.74
2017-12-12T00:28:38.415Z,925.68
2017-12-12T00:28:51.557Z,925.65
2017-12-12T00:29:04.729Z,925.6
2017-12-12T00:29:17.381Z,925.68
2017-12-12T00:29:30.099Z,925.62
2017-12-12T00:29:43.171Z,925.62
2017-12-12T00:29:56.328Z,925.66
2017-12-12T00:30:09.476Z,925.58
2017-12-12T00:30:22.155Z,925.65
2017-12-12T00:30:34.807Z,925.62
2017-12-12T00:30:47.546Z,925.7
2017-12-12T00:31:00.181Z,925.64
2017-12-12T00:31:12.820Z,925.66
2017-12-12T00:31:25.524Z,925.78
2017-12-12T00:31:38.733Z,925.72
2017-12-12T00:31:51.426Z,925.69
2017-12-12T00:32:04.127Z,925.69
2017-12-12T00:32:17.352Z,925.7
2017-12-12T00:32:30.454Z,925.75
2017-12-12T00:32:43.563Z,925.71
2017-12-12T00:32:56.719Z,925.7
2017-12-12T00:33:09.859Z,925.8
2017-12-12T00:33:22.486Z,925.69
2017-12-12T00:33:36.649Z,925.76
2017-12-12T00:33:49.777Z,925.73
2017-12-12T00:34:02.883Z,925.86
2017-12-12T00:34:15.962Z,925.88
2017-12-12T00:34:29.101Z,925.75
2017-12-12T00:34:41.312Z,925.73
2017-12-12T00:34:54.052Z,925.77
2017-12-12T00:35:07.269Z,925.79
2017-12-12T00:35:20.433Z,925.75
2017-12-12T00:35:32.612Z,925.75
2017-12-12T00:35:45.284Z,925.75
2017-12-12T00:35:58.426Z,925.71
2017-12-12T00:36:11.567Z,925.73
2017-12-12T00:36:24.680Z,925.75
2017-12-12T00:36:37.731Z,925.72
2017-12-12T00:36:50.343Z,925.76
2017-12-12T00:37:02.900Z,925.73
2017-12-12T00:37:16.015Z,925.75
2017-12-12T00:37:28.630Z,925.77
2017-12-12T00:37:41.717Z,925.82
2017-12-12T00:37:54.784Z,925.77
2017-12-12T00:38:07.888Z,925.85
2017-12-12T00:38:20.888Z,925.82
2017-12-12T00:38:33.979Z,925.84
2017-12-12T00:38:47.049Z,925.82
2017-12-12T00:38:59.676Z,925.75
2017-12-12T00:39:12.787Z,925.76
2017-12-12T00:39:25.870Z,925.78
2017-12-12T00:39:38.986Z,925.79
2017-12-12T00:39:52.084Z,925.79
2017-12-12T00:40:05.126Z,925.8
2017-12-12T00:40:18.188Z,925.81
2017-12-12T00:40:31.244Z,925.78
2017-12-12T00:40:44.338Z,925.81
2017-12-12T00:40:57.402Z,925.84
2017-12-12T00:41:10.508Z,925.78
2017-12-12T00:41:23.506Z,925.8
2017-12-12T00:41:36.140Z,925.78
2017-12-12T00:41:49.219Z,925.79
2017-12-12T00:42:02.267Z,925.82
2017-12-12T00:42:15.368Z,925.84
2017-12-12T00:42:28.482Z,925.84
2017-12-12T00:42:41.643Z,925.84
2017-12-12T00:42:54.713Z,925.8
2017-12-12T00:43:07.352Z,925.91
2017-12-12T00:43:20.067Z,925.85
2017-12-12T00:43:33.180Z,925.87
2017-12-12T00:43:46.364Z,925.85
2017-12-12T00:43:58.962Z,925.86
2017-12-12T00:44:12.061Z,925.88
2017-12-12T00:44:25.170Z,925.82
2017-12-12T00:44:38.241Z,925.93
2017-12-12T00:44:50.842Z,925.89
2017-12-12T00:45:03.966Z,925.86
2017-12-12T00:45:16.082Z,925.83
2017-12-12T00:45:29.154Z,925.85
2017-12-12T00:45:42.229Z,925.85
2017-12-12T00:45:55.339Z,925.87
2017-12-12T00:46:08.414Z,925.89
2017-12-12T00:46:21.496Z,925.82
2017-12-12T00:46:34.187Z,925.81
2017-12-12T00:46:47.301Z,925.84
2017-12-12T00:47:00.338Z,925.92
2017-12-12T00:47:12.938Z,925.86
2017-12-12T00:47:25.967Z,925.92
2017-12-12T00:47:39.044Z,925.86
2017-12-12T00:47:52.157Z,925.86
2017-12-12T00:48:05.221Z,925.91
2017-12-12T00:48:18.305Z,925.9
2017-12-12T00:48:31.362Z,926
2017-12-12T00:48:45.405Z,925.96
2017-12-12T00:48:58.010Z,925.92
2017-12-12T00:49:11.114Z,925.88
2017-12-12T00:49:24.187Z,925.89
2017-12-12T00:49:36.298Z,925.87
2017-12-12T00:49:49.402Z,925.88
2017-12-12T00:50:02.475Z,925.9
2017-12-12T00:50:15.594Z,925.92
2017-12-12T00:50:28.621Z,925.88
2017-12-12T00:50:41.702Z,925.86
2017-12-12T00:50:54.413Z,925.92
2017-12-12T00:51:07.544Z,925.91
2017-12-12T00:51:20.565Z,925.94
2017-12-12T00:51:33.610Z,925.91
2017-12-12T00:51:46.687Z,925.95
2017-12-12T00:51:59.280Z,925.95
2017-12-12T00:52:11.840Z,925.96
2017-12-12T00:52:24.918Z,925.99
2017-12-12T00:52:38.009Z,925.93
2017-12-12T00:52:50.605Z,925.95
2017-12-12T00:53:03.166Z,926.01
2017-12-12T00:53:15.745Z,925.91
2017-12-12T00:53:28.820Z,925.93
2017-12-12T00:53:42.086Z,926
2017-12-12T00:53:55.124Z,925.91
2017-12-12T00:54:08.259Z,925.93
2017-12-12T00:54:21.370Z,925.93
2017-12-12T00:54:34.475Z,925.94
2017-12-12T00:54:47.052Z,925.9
2017-12-12T00:55:00.141Z,926.02
2017-12-12T00:55:12.776Z,925.92
2017-12-12T00:55:25.892Z,926
2017-12-12T00:55:38.959Z,925.94
2017-12-12T00:55:52.074Z,925.96
2017-12-12T00:56:05.128Z,925.99
2017-12-12T00:56:17.768Z,925.9
2017-12-12T00:56:30.746Z,926.01
2017-12-12T00:56:43.808Z,925.95
2017-12-12T00:56:56.903Z,926
2017-12-12T00:57:10.002Z,925.92
2017-12-12T00:57:23.053Z,926.02
2017-12-12T00:57:36.141Z,926.01
2017-12-12T00:57:48.753Z,925.96
2017-12-12T00:58:01.830Z,925.98
2017-12-12T00:58:14.940Z,925.95
2017-12-12T00:58:27.946Z,925.93
2017-12-12T00:58:41.111Z,925.98
2017-12-12T00:58:53.754Z,926.04
2017-12-12T00:59:05.918Z,925.93
2017-12-12T00:59:18.961Z,925.94
2017-12-12T00:59:32.060Z,925.98
2017-12-12T00:59:45.179Z,925.97
2017-12-12T00:59:58.229Z,925.92
2017-12-12T01:00:11.322Z,925.92
2017-12-12T01:00:24.446Z,925.96
2017-12-12T01:00:37.060Z,925.97
2017-12-12T01:00:50.118Z,925.95
2017-12-12T01:01:03.227Z,925.93
2017-12-12T01:01:16.343Z,925.96
2017-12-12T01:01:29.466Z,926.1
2017-12-12T01:01:42.549Z,925.95
2017-12-12T01:01:55.572Z,925.96
2017-12-12T01:02:08.641Z,926.04
2017-12-12T01:02:21.217Z,926
2017-12-12T01:02:34.312Z,925.9
2017-12-12T01:02:46.935Z,926.17
2017-12-12T01:02:59.564Z,926.04
2017-12-12T01:03:12.069Z,926.02
2017-12-12T01:03:25.112Z,925.99
2017-12-12T01:03:37.737Z,925.96
2017-12-12T01:03:51.693Z,925.97
2017-12-12T01:04:04.769Z,925.99
2017-12-12T01:04:17.823Z,925.98
2017-12-12T01:04:30.846Z,926.03
2017-12-12T01:04:43.989Z,925.99
2017-12-12T01:04:57.062Z,926.03
2017-12-12T01:05:10.082Z,926.07
2017-12-12T01:05:22.626Z,926.13
2017-12-12T01:05:35.680Z,926.01
2017-12-12T01:05:48.820Z,926.15
2017-12-12T01:06:01.871Z,926.03
2017-12-12T01:06:14.955Z,926.02
2017-12-12T01:06:28.101Z,926.05
2017-12-12T01:06:41.186Z,925.98
2017-12-12T01:06:54.218Z,926.02
2017-12-12T01:07:07.353Z,926.05
2017-12-12T01:07:19.952Z,926
2017-12-12T01:07:33.038Z,925.99
2017-12-12T01:07:46.120Z,926.05
2017-12-12T01:07:59.216Z,926.04
2017-12-12T01:08:12.220Z,925.97
2017-12-12T01:08:25.230Z,926.11
2017-12-12T01:08:38.362Z,926
2017-12-12T01:08:51.527Z,926.03
2017-12-12T01:09:04.631Z,926.03
2017-12-12T01:09:17.248Z,926
2017-12-12T01:09:30.366Z,926
2017-12-12T01:09:43.516Z,926.03
2017-12-12T01:09:56.603Z,926.06
2017-12-12T01:10:09.185Z,926.04
2017-12-12T01:10:22.284Z,926.18
2017-12-12T01:10:35.391Z,925.99
2017-12-12T01:10:48.502Z,926.15
2017-12-12T01:11:01.639Z,926.01
2017-12-12T01:11:14.338Z,926.01
2017-12-12T01:11:26.894Z,926.11
2017-12-12T01:11:39.470Z,926.09
2017-12-12T01:11:52.605Z,926.11
2017-12-12T01:12:05.157Z,926.09
2017-12-12T01:12:17.255Z,926.17
2017-12-12T01:12:29.863Z,926.04
2017-12-12T01:12:42.428Z,926.08
2017-12-12T01:12:55.042Z,926.05
2017-12-12T01:13:08.137Z,926.11
2017-12-12T01:13:20.714Z,926.11
2017-12-12T01:13:33.802Z,926.04
2017-12-12T01:13:46.893Z,926.11
2017-12-12T01:14:00.126Z,926.1
2017-12-12T01:14:13.233Z,926.17
2017-12-12T01:14:26.233Z,926.1
2017-12-12T01:14:38.856Z,926.08
2017-12-12T01:14:51.890Z,926.06
2017-12-12T01:15:04.490Z,926.08
2017-12-12T01:15:17.087Z,926.09
2017-12-12T01:15:29.280Z,926.12
2017-12-12T01:15:42.380Z,926.1
2017-12-12T01:15:55.464Z,926.08
2017-12-12T01:16:08.503Z,926.1
2017-12-12T01:16:20.644Z,926.11
2017-12-12T01:16:33.710Z,926.15
2017-12-12T01:16:46.365Z,926.13
2017-12-12T01:16:59.533Z,926.13
2017-12-12T01:17:12.560Z,926.06
2017-12-12T01:17:25.615Z,926.05
2017-12-12T01:17:38.248Z,926.15
2017-12-12T01:17:51.315Z,926.15
2017-12-12T01:18:04.376Z,926.22
2017-12-12T01:18:17.508Z,926.08
2017-12-12T01:18:30.534Z,926.08
2017-12-12T01:18:43.615Z,926.09
2017-12-12T01:18:57.007Z,926.09
2017-12-12T01:19:10.290Z,926.07
2017-12-12T01:19:23.338Z,926.13
2017-12-12T01:19:36.409Z,926.12
2017-12-12T01:19:49.476Z,926.09
2017-12-12T01:20:02.543Z,926.03
2017-12-12T01:20:15.144Z,926.04
2017-12-12T01:20:28.164Z,926.04
2017-12-12T01:20:41.221Z,926.07
2017-12-12T01:20:54.305Z,926.07
2017-12-12T01:21:06.960Z,926.08
2017-12-12T01:21:20.085Z,926.16
2017-12-12T01:21:33.148Z,926.16
2017-12-12T01:21:46.172Z,926.13
2017-12-12T01:21:59.292Z,926.07
2017-12-12T01:22:12.459Z,926.17
2017-12-12T01:22:25.536Z,926.16
2017-12-12T01:22:38.143Z,926.16
2017-12-12T01:22:51.236Z,926.12
2017-12-12T01:23:04.362Z,926.12
2017-12-12T01:23:16.501Z,926.13
2017-12-12T01:23:29.561Z,926.15
2017-12-12T01:23:41.687Z,926.12
2017-12-12T01:23:56.301Z,926.08
2017-12-12T01:24:09.366Z,926.07
2017-12-12T01:24:21.970Z,926.14
2017-12-12T01:24:34.560Z,926.16
2017-12-12T01:24:47.576Z,926.11
2017-12-12T01:25:00.597Z,926.13
2017-12-12T01:25:13.919Z,926.13
2017-12-12T01:25:27.020Z,926.26
2017-12-12T01:25:40.106Z,926.25
2017-12-12T01:25:52.796Z,926.14
2017-12-12T01:26:05.397Z,926.15
2017-12-12T01:26:18.497Z,926.19
2017-12-12T01:26:31.542Z,926.14
2017-12-12T01:26:44.633Z,926.15
2017-12-12T01:26:57.734Z,926.19
2017-12-12T01:27:10.779Z,926.16
2017-12-12T01:27:23.914Z,926.17
2017-12-12T01:27:37.005Z,926.21
2017-12-12T01:27:49.059Z,926.2
2017-12-12T01:28:02.149Z,926.2
2017-12-12T01:28:14.736Z,926.22
2017-12-12T01:28:27.864Z,926.19
2017-12-12T01:28:40.469Z,926.21
2017-12-12T01:28:53.559Z,926.22
2017-12-12T01:29:06.649Z,926.13
2017-12-12T01:29:19.736Z,926.15
2017-12-12T01:29:32.800Z,926.22
2017-12-12T01:29:45.865Z,926.22
2017-12-12T01:29:58.998Z,926.27
2017-12-12T01:30:11.647Z,926.22
2017-12-12T01:30:24.802Z,926.2
2017-12-12T01:30:38.065Z,926.21
2017-12-12T01:30:51.066Z,926.38
2017-12-12T01:31:04.126Z,926.23
2017-12-12T01:31:17.244Z,926.34
2017-12-12T01:31:30.290Z,926.27
2017-12-12T01:31:43.381Z,926.28
2017-12-12T01:31:56.458Z,926.26
2017-12-12T01:32:09.518Z,926.34
2017-12-12T01:32:22.608Z,926.31
2017-12-12T01:32:35.709Z,926.22
2017-12-12T01:32:48.747Z,926.24
2017-12-12T01:33:01.788Z,926.3
2017-12-12T01:33:14.870Z,926.3
2017-12-12T01:33:28.064Z,926.26
2017-12-12T01:33:41.185Z,926.27
2017-12-12T01:33:53.308Z,926.25
2017-12-12T01:34:06.809Z,926.22
2017-12-12T01:34:19.893Z,926.21
2017-12-12T01:34:32.980Z,926.24
2017-12-12T01:34:45.572Z,926.25
2017-12-12T01:34:58.655Z,926.23
2017-12-12T01:35:11.696Z,926.29
2017-12-12T01:35:24.343Z,926.28
2017-12-12T01:35:37.354Z,926.28
2017-12-12T01:35:50.486Z,926.29
2017-12-12T01:36:03.624Z,926.27
2017-12-12T01:36:16.699Z,926.29
2017-12-12T01:36:29.758Z,926.31
2017-12-12T01:36:42.852Z,926.28
2017-12-12T01:36:55.924Z,926.42
2017-12-12T01:37:08.969Z,926.32
2017-12-12T01:37:22.066Z,926.21
2017-12-12T01:37:35.124Z,926.3
2017-12-12T01:37:47.738Z,926.37
2017-12-12T01:38:00.859Z,926.29
2017-12-12T01:38:13.942Z,926.28
2017-12-12T01:38:27.045Z,926.29
2017-12-12T01:38:40.133Z,926.38
2017-12-12T01:38:52.782Z,926.6
2017-12-12T01:39:06.100Z,926.39
2017-12-12T01:39:19.202Z,926.32
2017-12-12T01:39:31.872Z,926.32
2017-12-12T01:39:44.967Z,926.29
2017-12-12T01:39:58.061Z,926.3
2017-12-12T01:40:11.176Z,926.36
2017-12-12T01:40:24.253Z,926.4
2017-12-12T01:40:37.341Z,926.52
2017-12-12T01:40:49.985Z,926.4
2017-12-12T01:41:03.020Z,926.34
2017-12-12T01:41:15.684Z,926.34
2017-12-12T01:41:28.814Z,926.2
2017-12-12T01:41:41.905Z,926.32
2017-12-12T01:41:54.979Z,926.33
2017-12-12T01:42:08.091Z,926.26
2017-12-12T01:42:21.115Z,926.35
2017-12-12T01:42:33.716Z,926.36
2017-12-12T01:42:46.740Z,926.3
2017-12-12T01:42:59.794Z,926.3
2017-12-12T01:43:12.858Z,926.28
2017-12-12T01:43:25.964Z,926.33
2017-12-12T01:43:38.522Z,926.26
2017-12-12T01:43:51.689Z,926.36
2017-12-12T01:44:05.097Z,926.26
2017-12-12T01:44:18.211Z,926.26
2017-12-12T01:44:31.345Z,926.4
2017-12-12T01:44:43.995Z,926.28
2017-12-12T01:44:57.130Z,926.27
2017-12-12T01:45:10.174Z,926.35
2017-12-12T01:45:23.237Z,926.48
2017-12-12T01:45:36.331Z,926.37
2017-12-12T01:45:49.487Z,926.32
2017-12-12T01:46:02.541Z,926.35
2017-12-12T01:46:15.650Z,926.32
2017-12-12T01:46:28.758Z,926.35
2017-12-12T01:46:41.832Z,926.34
2017-12-12T01:46:54.935Z,926.28
2017-12-12T01:47:07.546Z,926.3
2017-12-12T01:47:20.621Z,926.32
2017-12-12T01:47:33.716Z,926.21
2017-12-12T01:47:46.835Z,926.21
2017-12-12T01:48:00.056Z,926.28
2017-12-12T01:48:13.197Z,926.41
2017-12-12T01:48:26.260Z,926.37
2017-12-12T01:48:38.878Z,926.27
2017-12-12T01:48:52.000Z,926.31
2017-12-12T01:49:05.888Z,926.31
2017-12-12T01:49:18.961Z,926.27
2017-12-12T01:49:31.603Z,926.31
2017-12-12T01:49:44.666Z,926.29
2017-12-12T01:49:57.697Z,926.34
2017-12-12T01:50:10.254Z,926.27
2017-12-12T01:50:23.308Z,926.34
2017-12-12T01:50:36.002Z,926.29
2017-12-12T01:50:49.060Z,926.31
2017-12-12T01:51:02.067Z,926.26
2017-12-12T01:51:15.167Z,926.27
2017-12-12T01:51:28.230Z,926.4
2017-12-12T01:51:40.828Z,926.39
2017-12-12T01:51:53.839Z,926.33
2017-12-12T01:52:06.872Z,926.28
2017-12-12T01:52:19.495Z,926.3
2017-12-12T01:52:32.633Z,926.32
2017-12-12T01:52:45.782Z,926.23
2017-12-12T01:52:58.853Z,926.32
2017-12-12T01:53:11.916Z,926.39
2017-12-12T01:53:25.014Z,926.28
2017-12-12T01:53:37.659Z,926.28
2017-12-12T01:53:50.758Z,926.31
2017-12-12T01:54:03.838Z,926.3
2017-12-12T01:54:16.954Z,926.3
2017-12-12T01:54:29.947Z,926.3
2017-12-12T01:54:43.065Z,926.33
2017-12-12T01:54:56.120Z,926.3
2017-12-12T01:55:09.180Z,926.31
2017-12-12T01:55:21.753Z,926.3
2017-12-12T01:55:34.819Z,926.31
2017-12-12T01:55:47.902Z,926.29
2017-12-12T01:56:00.977Z,926.26
2017-12-12T01:56:14.072Z,926.31
2017-12-12T01:56:27.135Z,926.27
2017-12-12T01:56:40.197Z,926.31
2017-12-12T01:56:53.324Z,926.31
2017-12-12T01:57:06.450Z,926.31
2017-12-12T01:57:19.089Z,926.36
2017-12-12T01:57:32.212Z,926.34
2017-12-12T01:57:45.293Z,926.34
2017-12-12T01:57:57.920Z,926.28
2017-12-12T01:58:10.991Z,926.3
2017-12-12T01:58:24.110Z,926.28
2017-12-12T01:58:37.231Z,926.3
2017-12-12T01:58:50.299Z,926.29
2017-12-12T01:59:03.404Z,926.27
2017-12-12T01:59:16.056Z,926.27
2017-12-12T01:59:28.221Z,926.31
2017-12-12T01:59:41.436Z,926.34
2017-12-12T01:59:54.776Z,926.33
2017-12-12T02:00:06.885Z,926.33
2017-12-12T02:00:19.993Z,926.31
2017-12-12T02:00:32.581Z,926.28
2017-12-12T02:00:45.627Z,926.28
2017-12-12T02:00:58.668Z,926.37
2017-12-12T02:01:11.337Z,926.3
2017-12-12T02:01:24.477Z,926.29
2017-12-12T02:01:37.500Z,926.28
2017-12-12T02:01:50.615Z,926.23
2017-12-12T02:02:03.672Z,926.24
2017-12-12T02:02:16.281Z,926.3
2017-12-12T02:02:29.302Z,926.25
2017-12-12T02:02:42.437Z,926.26
2017-12-12T02:02:55.579Z,926.25
2017-12-12T02:03:08.612Z,926.27
2017-12-12T02:03:21.696Z,926.24
2017-12-12T02:03:34.815Z,926.26
2017-12-12T02:03:47.856Z,926.26
2017-12-12T02:04:00.913Z,926.27
2017-12-12T02:04:14.354Z,926.24
2017-12-12T02:04:27.473Z,926.38
2017-12-12T02:04:40.505Z,926.35
2017-12-12T02:04:53.104Z,926.23
2017-12-12T02:05:06.176Z,926.26
2017-12-12T02:05:19.232Z,926.28
2017-12-12T02:05:32.293Z,926.29
2017-12-12T02:05:45.372Z,926.27
2017-12-12T02:05:58.552Z,926.27
2017-12-12T02:06:11.614Z,926.29
2017-12-12T02:06:23.690Z,926.27
2017-12-12T02:06:36.721Z,926.24
2017-12-12T02:06:49.865Z,926.25
2017-12-12T02:07:02.936Z,926.31
2017-12-12T02:07:15.492Z,926.29
2017-12-12T02:07:28.131Z,926.25
2017-12-12T02:07:41.155Z,926.25
2017-12-12T02:07:54.182Z,926.24
2017-12-12T02:08:07.198Z,926.25
2017-12-12T02:08:19.384Z,926.23
2017-12-12T02:08:32.478Z,926.26
2017-12-12T02:08:45.582Z,926.21
2017-12-12T02:08:58.707Z,926.25
2017-12-12T02:09:11.397Z,926.33
2017-12-12T02:09:24.507Z,926.29
2017-12-12T02:09:37.549Z,926.18
2017-12-12T02:09:50.633Z,926.28
2017-12-12T02:10:03.738Z,926.32
2017-12-12T02:10:16.299Z,926.33
2017-12-12T02:10:29.399Z,926.27
2017-12-12T02:10:42.020Z,926.27
2017-12-12T02:10:55.119Z,926.27
2017-12-12T02:11:08.442Z,926.31
2017-12-12T02:11:21.493Z,926.29
2017-12-12T02:11:34.544Z,926.23
2017-12-12T02:11:47.659Z,926.3
2017-12-12T02:12:00.746Z,926.25
2017-12-12T02:12:14.041Z,926.38
2017-12-12T02:12:27.117Z,926.26
2017-12-12T02:12:40.156Z,926.27
2017-12-12T02:12:53.203Z,926.3
2017-12-12T02:13:06.289Z,926.24
2017-12-12T02:13:19.371Z,926.23
2017-12-12T02:13:32.404Z,926.26
2017-12-12T02:13:45.458Z,926.34
2017-12-12T02:13:58.547Z,926.3
2017-12-12T02:14:11.589Z,926.35
2017-12-12T02:14:24.804Z,926.08
2017-12-12T02:14:37.893Z,926.29
2017-12-12T02:14:51.049Z,926.23
2017-12-12T02:15:04.178Z,926.33
2017-12-12T02:15:17.203Z,926.18
2017-12-12T02:15:29.812Z,926.21
2017-12-12T02:15:42.937Z,926.2
2017-12-12T02:15:55.959Z,926.25
2017-12-12T02:16:09.107Z,926.32
2017-12-12T02:16:22.121Z,926.31
2017-12-12T02:16:35.237Z,926.27
2017-12-12T02:16:48.315Z,926.22
2017-12-12T02:17:01.343Z,926.2
2017-12-12T02:17:14.427Z,926.24
2017-12-12T02:17:27.029Z,926.26
2017-12-12T02:17:40.100Z,926.24
2017-12-12T02:17:53.151Z,926.27
2017-12-12T02:18:06.205Z,926.19
2017-12-12T02:18:19.309Z,926.25
2017-12-12T02:18:32.352Z,926.26
2017-12-12T02:18:44.936Z,926.4
2017-12-12T02:18:57.975Z,926.27
2017-12-12T02:19:11.022Z,926.26
2017-12-12T02:19:25.444Z,926.26
2017-12-12T02:19:38.084Z,926.22
2017-12-12T02:19:51.154Z,926.28
2017-12-12T02:20:03.777Z,926.28
2017-12-12T02:20:16.886Z,926.25
2017-12-12T02:20:28.985Z,926.26
2017-12-12T02:20:42.059Z,926.23
2017-12-12T02:20:55.162Z,926.27
2017-12-12T02:21:07.802Z,926.34
2017-12-12T02:21:20.886Z,926.22
2017-12-12T02:21:34.000Z,926.26
2017-12-12T02:21:47.074Z,926.32
2017-12-12T02:22:00.209Z,926.31
2017-12-12T02:22:12.806Z,926.23
2017-12-12T02:22:25.395Z,926.32
2017-12-12T02:22:38.051Z,926.21
2017-12-12T02:22:51.136Z,926.19
2017-12-12T02:23:04.230Z,926.24
2017-12-12T02:23:17.308Z,926.29
2017-12-12T02:23:30.456Z,926.19
2017-12-12T02:23:43.043Z,926.39
2017-12-12T02:23:56.120Z,926.31
2017-12-12T02:24:09.142Z,926.21
2017-12-12T02:24:22.226Z,926.27
2017-12-12T02:24:35.325Z,926.23
2017-12-12T02:24:47.913Z,926.21
2017-12-12T02:25:00.981Z,926.23
2017-12-12T02:25:14.089Z,926.22
2017-12-12T02:25:27.162Z,926.26
2017-12-12T02:25:39.259Z,926.29
2017-12-12T02:25:52.286Z,926.24
2017-12-12T02:26:05.400Z,926.2
2017-12-12T02:26:18.501Z,926.29
2017-12-12T02:26:31.067Z,926.15
2017-12-12T02:26:43.223Z,926.21
2017-12-12T02:26:55.368Z,926.24
2017-12-12T02:27:08.511Z,926.19
2017-12-12T02:27:21.563Z,926.14
2017-12-12T02:27:34.179Z,926.16
2017-12-12T02:27:47.225Z,926.16
2017-12-12T02:28:00.304Z,926.33
2017-12-12T02:28:13.374Z,926.34
2017-12-12T02:28:26.422Z,926.25
2017-12-12T02:28:39.611Z,926.2
2017-12-12T02:28:52.219Z,926.25
2017-12-12T02:29:05.281Z,926.21
2017-12-12T02:29:17.875Z,926.18
2017-12-12T02:29:30.496Z,926.27
2017-12-12T02:29:43.518Z,926.23
2017-12-12T02:29:56.592Z,926.24
2017-12-12T02:30:09.643Z,926.21
2017-12-12T02:30:21.853Z,926.22
2017-12-12T02:30:35.015Z,926.24
2017-12-12T02:30:46.674Z,926.2
2017-12-12T02:30:59.757Z,926.21
2017-12-12T02:31:12.902Z,926.27
2017-12-12T02:31:26.060Z,926.27
2017-12-12T02:31:39.125Z,926.27
2017-12-12T02:31:52.217Z,926.24
2017-12-12T02:32:05.240Z,926.23
2017-12-12T02:32:18.338Z,926.23
2017-12-12T02:32:31.398Z,926.3
2017-12-12T02:32:44.459Z,926.3
2017-12-12T02:32:57.031Z,926.23
2017-12-12T02:33:10.367Z,926.26
2017-12-12T02:33:23.422Z,926.32
2017-12-12T02:33:36.512Z,926.3
2017-12-12T02:33:49.090Z,926.25
2017-12-12T02:34:02.246Z,926.28
2017-12-12T02:34:15.331Z,926.24
2017-12-12T02:34:29.515Z,926.29
2017-12-12T02:34:42.604Z,926.35
2017-12-12T02:34:55.701Z,926.31
2017-12-12T02:35:08.769Z,926.22
2017-12-12T02:35:21.349Z,926.5
2017-12-12T02:35:34.500Z,926.36
2017-12-12T02:35:47.612Z,926.33
2017-12-12T02:36:00.715Z,926.19
2017-12-12T02:36:14.017Z,926.31
2017-12-12T02:36:26.661Z,926.29
2017-12-12T02:36:39.729Z,926.22
2017-12-12T02:36:52.776Z,926.4
2017-12-12T02:37:05.832Z,926.42
2017-12-12T02:37:18.445Z,926.27
2017-12-12T02:37:31.524Z,926.32
2017-12-12T02:37:44.610Z,926.42
2017-12-12T02:37:57.211Z,926.39
2017-12-12T02:38:09.376Z,926.35
2017-12-12T02:38:22.450Z,926.26
2017-12-12T02:38:35.594Z,926.25
2017-12-12T02:38:48.191Z,926.32
2017-12-12T02:39:01.361Z,926.31
2017-12-12T02:39:14.443Z,926.26
2017-12-12T02:39:27.042Z,926.23
2017-12-12T02:39:40.318Z,926.31
2017-12-12T02:39:53.412Z,926.22
2017-12-12T02:40:06.461Z,926.34
2017-12-12T02:40:18.623Z,926.26
2017-12-12T02:40:31.682Z,926.34
2017-12-12T02:40:44.763Z,926.25
2017-12-12T02:40:57.845Z,926.3
2017-12-12T02:41:10.416Z,926.28
2017-12-12T02:41:23.489Z,926.33
2017-12-12T02:41:36.539Z,926.22
2017-12-12T02:41:49.606Z,926.31
2017-12-12T02:42:02.710Z,926.3
2017-12-12T02:42:15.279Z,926.25
2017-12-12T02:42:28.352Z,926.22